sensor_id;sensor_type;location;lat;lon;timestamp;temperature;humidity
11126;DHT22;5617;54.046;10.676;2024-03-02T00:00:07;8.50;99.90
11126;DHT22;5617;54.046;10.676;2024-03-02T00:02:20;8.50;99.90
11126;DHT22;5617;54.046;10.676;2024-03-02T00:04:30;8.50;99.90
11126;DHT22;5617;54.046;10.676;2024-03-02T00:06:40;8.50;99.90
11126;DHT22;5617;54.046;10.676;2024-03-02T00:08:48;8.60;99.90
11126;DHT22;5617;54.046;10.676;2024-03-02T00:10:57;8.60;99.90
11126;DHT22;5617;54.046;10.676;2024-03-02T00:13:07;8.60;99.90
11126;DHT22;5617;54.046;10.676;2024-03-02T00:15:40;8.60;99.90
11126;DHT22;5617;54.046;10.676;2024-03-02T00:17:52;8.70;99.90
11126;DHT22;5617;54.046;10.676;2024-03-02T00:20:03;8.70;99.90
11126;DHT22;5617;54.046;10.676;2024-03-02T00:22:15;8.70;99.90
11126;DHT22;5617;54.046;10.676;2024-03-02T00:24:30;8.70;99.90
11126;DHT22;5617;54.046;10.676;2024-03-02T00:26:39;8.70;99.90
11126;DHT22;5617;54.046;10.676;2024-03-02T00:28:48;8.70;99.90
11126;DHT22;5617;54.046;10.676;2024-03-02T00:30:58;8.60;99.90
11126;DHT22;5617;54.046;10.676;2024-03-02T00:33:07;8.60;99.90
11126;DHT22;5617;54.046;10.676;2024-03-02T00:35:23;8.50;99.90
11126;DHT22;5617;54.046;10.676;2024-03-02T00:37:36;8.40;99.90
11126;DHT22;5617;54.046;10.676;2024-03-02T00:39:49;8.40;99.90
11126;DHT22;5617;54.046;10.676;2024-03-02T00:42:04;8.50;99.90
11126;DHT22;5617;54.046;10.676;2024-03-02T00:44:15;8.40;99.90
11126;DHT22;5617;54.046;10.676;2024-03-02T00:46:25;8.40;99.90
11126;DHT22;5617;54.046;10.676;2024-03-02T00:48:34;8.30;99.90
11126;DHT22;5617;54.046;10.676;2024-03-02T00:50:45;8.30;99.90
11126;DHT22;5617;54.046;10.676;2024-03-02T00:52:56;8.30;99.90
11126;DHT22;5617;54.046;10.676;2024-03-02T00:55:05;8.20;99.90
11126;DHT22;5617;54.046;10.676;2024-03-02T00:57:15;8.20;99.90
11126;DHT22;5617;54.046;10.676;2024-03-02T00:59:25;8.30;99.90
11126;DHT22;5617;54.046;10.676;2024-03-02T01:01:36;8.20;99.90
11126;DHT22;5617;54.046;10.676;2024-03-02T01:03:48;8.20;99.90
11126;DHT22;5617;54.046;10.676;2024-03-02T01:05:58;8.20;99.90
11126;DHT22;5617;54.046;10.676;2024-03-02T01:08:09;8.20;99.90
11126;DHT22;5617;54.046;10.676;2024-03-02T01:10:18;8.20;99.90
11126;DHT22;5617;54.046;10.676;2024-03-02T01:12:30;8.10;99.90
11126;DHT22;5617;54.046;10.676;2024-03-02T01:14:38;8.10;99.90
11126;DHT22;5617;54.046;10.676;2024-03-02T01:16:47;8.10;99.90
11126;DHT22;5617;54.046;10.676;2024-03-02T01:18:58;8.10;99.90
11126;DHT22;5617;54.046;10.676;2024-03-02T01:21:09;8.20;99.90
11126;DHT22;5617;54.046;10.676;2024-03-02T01:23:18;8.20;99.90
11126;DHT22;5617;54.046;10.676;2024-03-02T01:25:27;8.20;99.90
11126;DHT22;5617;54.046;10.676;2024-03-02T01:27:35;8.10;99.90
11126;DHT22;5617;54.046;10.676;2024-03-02T01:29:44;8.10;99.90
11126;DHT22;5617;54.046;10.676;2024-03-02T01:31:52;8.00;99.90
11126;DHT22;5617;54.046;10.676;2024-03-02T01:34:05;8.00;99.90
11126;DHT22;5617;54.046;10.676;2024-03-02T01:36:15;7.90;99.90
11126;DHT22;5617;54.046;10.676;2024-03-02T01:38:24;7.80;99.90
11126;DHT22;5617;54.046;10.676;2024-03-02T01:40:34;7.70;99.90
11126;DHT22;5617;54.046;10.676;2024-03-02T01:42:46;7.70;99.90
11126;DHT22;5617;54.046;10.676;2024-03-02T01:44:54;7.60;99.90
11126;DHT22;5617;54.046;10.676;2024-03-02T01:47:03;7.50;99.90
11126;DHT22;5617;54.046;10.676;2024-03-02T01:49:14;7.50;99.90
11126;DHT22;5617;54.046;10.676;2024-03-02T01:51:25;7.50;99.90
11126;DHT22;5617;54.046;10.676;2024-03-02T01:53:33;7.50;99.90
11126;DHT22;5617;54.046;10.676;2024-03-02T01:55:42;7.50;99.90
11126;DHT22;5617;54.046;10.676;2024-03-02T01:57:51;7.50;99.90
11126;DHT22;5617;54.046;10.676;2024-03-02T01:59:59;7.40;99.90
11126;DHT22;5617;54.046;10.676;2024-03-02T02:02:11;7.40;99.90
11126;DHT22;5617;54.046;10.676;2024-03-02T02:04:24;7.40;99.90
11126;DHT22;5617;54.046;10.676;2024-03-02T02:06:36;7.40;99.90
11126;DHT22;5617;54.046;10.676;2024-03-02T02:08:44;7.40;99.90
11126;DHT22;5617;54.046;10.676;2024-03-02T02:10:56;7.40;99.90
11126;DHT22;5617;54.046;10.676;2024-03-02T02:13:23;7.40;99.90
11126;DHT22;5617;54.046;10.676;2024-03-02T02:15:31;7.50;99.90
11126;DHT22;5617;54.046;10.676;2024-03-02T02:17:42;7.50;99.90
11126;DHT22;5617;54.046;10.676;2024-03-02T02:19:53;7.60;99.90
11126;DHT22;5617;54.046;10.676;2024-03-02T02:22:05;7.60;99.90
11126;DHT22;5617;54.046;10.676;2024-03-02T02:24:13;7.60;99.90
11126;DHT22;5617;54.046;10.676;2024-03-02T02:26:22;7.70;99.90
11126;DHT22;5617;54.046;10.676;2024-03-02T02:28:32;7.60;99.90
11126;DHT22;5617;54.046;10.676;2024-03-02T02:30:40;7.50;99.90
11126;DHT22;5617;54.046;10.676;2024-03-02T02:32:52;7.40;99.90
11126;DHT22;5617;54.046;10.676;2024-03-02T02:35:06;7.40;99.90
11126;DHT22;5617;54.046;10.676;2024-03-02T02:37:17;7.40;99.90
11126;DHT22;5617;54.046;10.676;2024-03-02T02:39:26;7.30;99.90
11126;DHT22;5617;54.046;10.676;2024-03-02T02:41:35;7.30;99.90
11126;DHT22;5617;54.046;10.676;2024-03-02T02:43:43;7.30;99.90
11126;DHT22;5617;54.046;10.676;2024-03-02T02:45:54;7.30;99.90
11126;DHT22;5617;54.046;10.676;2024-03-02T02:48:04;7.30;99.90
11126;DHT22;5617;54.046;10.676;2024-03-02T02:50:13;7.30;99.90
11126;DHT22;5617;54.046;10.676;2024-03-02T02:52:24;7.30;99.90
11126;DHT22;5617;54.046;10.676;2024-03-02T02:54:33;7.40;99.90
11126;DHT22;5617;54.046;10.676;2024-03-02T02:56:43;7.40;99.90
11126;DHT22;5617;54.046;10.676;2024-03-02T02:58:51;7.40;99.90
11126;DHT22;5617;54.046;10.676;2024-03-02T03:01:01;7.40;99.90
11126;DHT22;5617;54.046;10.676;2024-03-02T03:03:12;7.40;99.90
11126;DHT22;5617;54.046;10.676;2024-03-02T03:05:22;7.50;99.90
11126;DHT22;5617;54.046;10.676;2024-03-02T03:07:39;7.40;99.90
11126;DHT22;5617;54.046;10.676;2024-03-02T03:09:48;7.40;99.90
11126;DHT22;5617;54.046;10.676;2024-03-02T03:11:56;7.30;99.90
11126;DHT22;5617;54.046;10.676;2024-03-02T03:14:04;7.30;99.90
11126;DHT22;5617;54.046;10.676;2024-03-02T03:16:12;7.30;99.90
11126;DHT22;5617;54.046;10.676;2024-03-02T03:18:21;7.30;99.90
11126;DHT22;5617;54.046;10.676;2024-03-02T03:20:29;7.10;99.90
11126;DHT22;5617;54.046;10.676;2024-03-02T03:22:40;7.20;99.90
11126;DHT22;5617;54.046;10.676;2024-03-02T03:24:47;7.20;99.90
11126;DHT22;5617;54.046;10.676;2024-03-02T03:26:58;7.20;99.90
11126;DHT22;5617;54.046;10.676;2024-03-02T03:29:08;7.20;99.90
11126;DHT22;5617;54.046;10.676;2024-03-02T03:31:19;7.20;99.90
11126;DHT22;5617;54.046;10.676;2024-03-02T03:33:28;7.20;99.90
11126;DHT22;5617;54.046;10.676;2024-03-02T03:35:37;7.20;99.90
11126;DHT22;5617;54.046;10.676;2024-03-02T03:37:49;7.20;99.90
11126;DHT22;5617;54.046;10.676;2024-03-02T03:39:58;7.20;99.90
11126;DHT22;5617;54.046;10.676;2024-03-02T03:42:06;7.10;99.90
11126;DHT22;5617;54.046;10.676;2024-03-02T03:44:18;7.10;99.90
11126;DHT22;5617;54.046;10.676;2024-03-02T03:46:24;7.10;99.90
11126;DHT22;5617;54.046;10.676;2024-03-02T03:48:33;7.10;99.90
11126;DHT22;5617;54.046;10.676;2024-03-02T03:50:42;7.20;99.90
11126;DHT22;5617;54.046;10.676;2024-03-02T03:52:55;7.20;99.90
11126;DHT22;5617;54.046;10.676;2024-03-02T03:55:05;7.20;99.90
11126;DHT22;5617;54.046;10.676;2024-03-02T03:57:16;7.20;99.90
11126;DHT22;5617;54.046;10.676;2024-03-02T03:59:24;7.20;99.90
11126;DHT22;5617;54.046;10.676;2024-03-02T04:01:34;7.20;99.90
11126;DHT22;5617;54.046;10.676;2024-03-02T04:03:42;7.20;99.90
11126;DHT22;5617;54.046;10.676;2024-03-02T04:05:50;7.20;99.90
11126;DHT22;5617;54.046;10.676;2024-03-02T04:08:02;7.30;99.90
11126;DHT22;5617;54.046;10.676;2024-03-02T04:10:11;7.30;99.90
11126;DHT22;5617;54.046;10.676;2024-03-02T04:12:21;7.30;99.90
11126;DHT22;5617;54.046;10.676;2024-03-02T04:14:30;7.30;99.90
11126;DHT22;5617;54.046;10.676;2024-03-02T04:16:39;7.30;99.90
11126;DHT22;5617;54.046;10.676;2024-03-02T04:18:47;7.30;99.90
11126;DHT22;5617;54.046;10.676;2024-03-02T04:20:56;7.30;99.90
11126;DHT22;5617;54.046;10.676;2024-03-02T04:23:08;7.30;99.90
11126;DHT22;5617;54.046;10.676;2024-03-02T04:25:16;7.30;99.90
11126;DHT22;5617;54.046;10.676;2024-03-02T04:27:25;7.30;99.90
11126;DHT22;5617;54.046;10.676;2024-03-02T04:29:33;7.30;99.90
11126;DHT22;5617;54.046;10.676;2024-03-02T04:31:42;7.30;99.90
11126;DHT22;5617;54.046;10.676;2024-03-02T04:33:57;7.30;99.90
11126;DHT22;5617;54.046;10.676;2024-03-02T04:36:06;7.30;99.90
11126;DHT22;5617;54.046;10.676;2024-03-02T04:38:18;7.30;99.90
11126;DHT22;5617;54.046;10.676;2024-03-02T04:40:28;7.30;99.90
11126;DHT22;5617;54.046;10.676;2024-03-02T04:42:36;7.30;99.90
11126;DHT22;5617;54.046;10.676;2024-03-02T04:44:45;7.30;99.90
11126;DHT22;5617;54.046;10.676;2024-03-02T04:46:53;7.30;99.90
11126;DHT22;5617;54.046;10.676;2024-03-02T04:49:03;7.30;99.90
11126;DHT22;5617;54.046;10.676;2024-03-02T04:51:11;7.30;99.90
11126;DHT22;5617;54.046;10.676;2024-03-02T04:53:22;7.30;99.90
11126;DHT22;5617;54.046;10.676;2024-03-02T04:55:30;7.30;99.90
11126;DHT22;5617;54.046;10.676;2024-03-02T04:58:04;7.30;99.90
11126;DHT22;5617;54.046;10.676;2024-03-02T05:00:14;7.30;99.90
11126;DHT22;5617;54.046;10.676;2024-03-02T05:02:21;7.30;99.90
11126;DHT22;5617;54.046;10.676;2024-03-02T05:04:29;7.20;99.90
11126;DHT22;5617;54.046;10.676;2024-03-02T05:06:38;7.20;99.90
11126;DHT22;5617;54.046;10.676;2024-03-02T05:08:49;7.30;99.90
11126;DHT22;5617;54.046;10.676;2024-03-02T05:10:57;7.30;99.90
11126;DHT22;5617;54.046;10.676;2024-03-02T05:13:26;7.30;99.90
11126;DHT22;5617;54.046;10.676;2024-03-02T05:15:34;7.30;99.90
11126;DHT22;5617;54.046;10.676;2024-03-02T05:17:43;7.40;99.90
11126;DHT22;5617;54.046;10.676;2024-03-02T05:19:51;7.40;99.90
11126;DHT22;5617;54.046;10.676;2024-03-02T05:22:00;7.40;99.90
11126;DHT22;5617;54.046;10.676;2024-03-02T05:24:11;7.40;99.90
11126;DHT22;5617;54.046;10.676;2024-03-02T05:26:19;7.40;99.90
11126;DHT22;5617;54.046;10.676;2024-03-02T05:28:27;7.30;99.90
11126;DHT22;5617;54.046;10.676;2024-03-02T05:30:36;7.30;99.90
11126;DHT22;5617;54.046;10.676;2024-03-02T05:32:48;7.20;99.90
11126;DHT22;5617;54.046;10.676;2024-03-02T05:34:57;7.20;99.90
11126;DHT22;5617;54.046;10.676;2024-03-02T05:37:04;7.20;99.90
11126;DHT22;5617;54.046;10.676;2024-03-02T05:39:14;7.20;99.90
11126;DHT22;5617;54.046;10.676;2024-03-02T05:41:22;7.20;99.90
11126;DHT22;5617;54.046;10.676;2024-03-02T05:43:31;7.10;99.90
11126;DHT22;5617;54.046;10.676;2024-03-02T05:45:39;7.10;99.90
11126;DHT22;5617;54.046;10.676;2024-03-02T05:47:48;7.10;99.90
11126;DHT22;5617;54.046;10.676;2024-03-02T05:50:00;7.10;99.90
11126;DHT22;5617;54.046;10.676;2024-03-02T05:52:08;7.10;99.90
11126;DHT22;5617;54.046;10.676;2024-03-02T05:54:19;7.10;99.90
11126;DHT22;5617;54.046;10.676;2024-03-02T05:56:27;7.10;99.90
11126;DHT22;5617;54.046;10.676;2024-03-02T05:58:36;7.00;99.90
11126;DHT22;5617;54.046;10.676;2024-03-02T06:01:00;7.10;99.90
11126;DHT22;5617;54.046;10.676;2024-03-02T06:03:09;7.10;99.90
11126;DHT22;5617;54.046;10.676;2024-03-02T06:05:18;7.20;99.90
11126;DHT22;5617;54.046;10.676;2024-03-02T06:07:28;7.20;99.90
11126;DHT22;5617;54.046;10.676;2024-03-02T06:09:37;7.20;99.90
11126;DHT22;5617;54.046;10.676;2024-03-02T06:11:46;7.30;99.90
11126;DHT22;5617;54.046;10.676;2024-03-02T06:13:55;7.20;99.90
11126;DHT22;5617;54.046;10.676;2024-03-02T06:16:10;7.20;99.90
11126;DHT22;5617;54.046;10.676;2024-03-02T06:18:18;7.30;99.90
11126;DHT22;5617;54.046;10.676;2024-03-02T06:20:27;7.30;99.90
11126;DHT22;5617;54.046;10.676;2024-03-02T06:22:46;7.40;99.90
11126;DHT22;5617;54.046;10.676;2024-03-02T06:24:58;7.40;99.90
11126;DHT22;5617;54.046;10.676;2024-03-02T06:27:07;7.50;99.90
11126;DHT22;5617;54.046;10.676;2024-03-02T06:29:15;7.50;99.90
11126;DHT22;5617;54.046;10.676;2024-03-02T06:31:24;7.60;99.90
11126;DHT22;5617;54.046;10.676;2024-03-02T06:33:34;7.60;99.90
11126;DHT22;5617;54.046;10.676;2024-03-02T06:35:43;7.60;99.90
11126;DHT22;5617;54.046;10.676;2024-03-02T06:37:51;7.70;99.90
11126;DHT22;5617;54.046;10.676;2024-03-02T06:40:00;7.70;99.90
11126;DHT22;5617;54.046;10.676;2024-03-02T06:42:09;7.60;99.90
11126;DHT22;5617;54.046;10.676;2024-03-02T06:44:26;7.70;99.90
11126;DHT22;5617;54.046;10.676;2024-03-02T06:46:40;7.70;99.90
11126;DHT22;5617;54.046;10.676;2024-03-02T06:48:48;7.70;99.90
11126;DHT22;5617;54.046;10.676;2024-03-02T06:50:56;7.70;99.90
11126;DHT22;5617;54.046;10.676;2024-03-02T06:53:05;7.70;99.90
11126;DHT22;5617;54.046;10.676;2024-03-02T06:55:15;7.60;99.90
11126;DHT22;5617;54.046;10.676;2024-03-02T06:57:25;7.60;99.90
11126;DHT22;5617;54.046;10.676;2024-03-02T06:59:34;7.50;99.90
11126;DHT22;5617;54.046;10.676;2024-03-02T07:01:43;7.40;99.90
11126;DHT22;5617;54.046;10.676;2024-03-02T07:03:52;7.40;99.90
11126;DHT22;5617;54.046;10.676;2024-03-02T07:06:00;7.40;99.90
11126;DHT22;5617;54.046;10.676;2024-03-02T07:08:24;7.40;99.90
11126;DHT22;5617;54.046;10.676;2024-03-02T07:10:53;7.40;99.90
11126;DHT22;5617;54.046;10.676;2024-03-02T07:13:01;7.40;99.90
11126;DHT22;5617;54.046;10.676;2024-03-02T07:15:10;7.40;99.90
11126;DHT22;5617;54.046;10.676;2024-03-02T07:17:54;7.40;99.90
11126;DHT22;5617;54.046;10.676;2024-03-02T07:20:05;7.50;99.90
11126;DHT22;5617;54.046;10.676;2024-03-02T07:22:14;7.60;99.90
11126;DHT22;5617;54.046;10.676;2024-03-02T07:24:30;7.60;99.90
11126;DHT22;5617;54.046;10.676;2024-03-02T07:26:48;7.50;99.90
11126;DHT22;5617;54.046;10.676;2024-03-02T07:29:01;7.50;99.90
11126;DHT22;5617;54.046;10.676;2024-03-02T07:31:10;7.60;99.90
11126;DHT22;5617;54.046;10.676;2024-03-02T07:33:26;7.60;99.90
11126;DHT22;5617;54.046;10.676;2024-03-02T07:35:37;7.60;99.90
11126;DHT22;5617;54.046;10.676;2024-03-02T07:37:57;7.60;99.90
11126;DHT22;5617;54.046;10.676;2024-03-02T07:40:06;7.60;99.90
11126;DHT22;5617;54.046;10.676;2024-03-02T07:42:29;7.50;99.90
11126;DHT22;5617;54.046;10.676;2024-03-02T07:44:38;7.60;99.90
11126;DHT22;5617;54.046;10.676;2024-03-02T07:46:54;7.70;99.90
11126;DHT22;5617;54.046;10.676;2024-03-02T07:49:10;7.80;99.90
11126;DHT22;5617;54.046;10.676;2024-03-02T07:51:19;7.90;99.90
11126;DHT22;5617;54.046;10.676;2024-03-02T07:53:27;8.00;99.90
11126;DHT22;5617;54.046;10.676;2024-03-02T07:55:37;8.10;99.90
11126;DHT22;5617;54.046;10.676;2024-03-02T07:57:47;8.20;99.90
11126;DHT22;5617;54.046;10.676;2024-03-02T07:59:59;8.20;99.90
11126;DHT22;5617;54.046;10.676;2024-03-02T08:02:07;8.20;99.90
11126;DHT22;5617;54.046;10.676;2024-03-02T08:04:16;8.30;99.90
11126;DHT22;5617;54.046;10.676;2024-03-02T08:06:30;8.30;99.90
11126;DHT22;5617;54.046;10.676;2024-03-02T08:08:41;8.40;99.90
11126;DHT22;5617;54.046;10.676;2024-03-02T08:10:56;8.40;99.90
11126;DHT22;5617;54.046;10.676;2024-03-02T08:13:24;8.50;99.90
11126;DHT22;5617;54.046;10.676;2024-03-02T08:15:37;8.50;99.90
11126;DHT22;5617;54.046;10.676;2024-03-02T08:17:45;8.60;99.90
11126;DHT22;5617;54.046;10.676;2024-03-02T08:19:57;8.60;99.90
11126;DHT22;5617;54.046;10.676;2024-03-02T08:22:06;8.70;99.90
11126;DHT22;5617;54.046;10.676;2024-03-02T08:24:26;8.80;99.90
11126;DHT22;5617;54.046;10.676;2024-03-02T08:26:34;8.80;99.90
11126;DHT22;5617;54.046;10.676;2024-03-02T08:28:55;8.80;99.90
11126;DHT22;5617;54.046;10.676;2024-03-02T08:31:22;8.90;99.90
11126;DHT22;5617;54.046;10.676;2024-03-02T08:33:48;8.90;99.90
11126;DHT22;5617;54.046;10.676;2024-03-02T08:35:57;9.00;99.90
11126;DHT22;5617;54.046;10.676;2024-03-02T08:38:24;9.00;99.90
11126;DHT22;5617;54.046;10.676;2024-03-02T08:40:51;9.10;99.90
11126;DHT22;5617;54.046;10.676;2024-03-02T08:43:19;9.10;99.90
11126;DHT22;5617;54.046;10.676;2024-03-02T08:45:47;9.10;99.90
11126;DHT22;5617;54.046;10.676;2024-03-02T08:48:01;9.20;99.90
11126;DHT22;5617;54.046;10.676;2024-03-02T08:50:09;9.20;99.90
11126;DHT22;5617;54.046;10.676;2024-03-02T08:52:30;9.20;99.90
11126;DHT22;5617;54.046;10.676;2024-03-02T08:54:38;9.20;99.90
11126;DHT22;5617;54.046;10.676;2024-03-02T08:56:47;9.30;99.90
11126;DHT22;5617;54.046;10.676;2024-03-02T08:58:57;9.30;99.90
11126;DHT22;5617;54.046;10.676;2024-03-02T09:01:07;9.20;99.90
11126;DHT22;5617;54.046;10.676;2024-03-02T09:03:32;9.30;99.90
11126;DHT22;5617;54.046;10.676;2024-03-02T09:05:55;9.40;99.90
11126;DHT22;5617;54.046;10.676;2024-03-02T09:08:04;9.50;99.90
11126;DHT22;5617;54.046;10.676;2024-03-02T09:10:13;9.50;99.90
11126;DHT22;5617;54.046;10.676;2024-03-02T09:12:22;9.60;99.90
11126;DHT22;5617;54.046;10.676;2024-03-02T09:14:33;9.60;99.90
11126;DHT22;5617;54.046;10.676;2024-03-02T09:16:43;9.70;99.90
11126;DHT22;5617;54.046;10.676;2024-03-02T09:18:57;9.70;99.90
11126;DHT22;5617;54.046;10.676;2024-03-02T09:21:05;9.70;99.90
11126;DHT22;5617;54.046;10.676;2024-03-02T09:23:26;9.70;99.90
11126;DHT22;5617;54.046;10.676;2024-03-02T09:25:35;9.80;99.90
11126;DHT22;5617;54.046;10.676;2024-03-02T09:27:44;9.80;99.90
11126;DHT22;5617;54.046;10.676;2024-03-02T09:29:52;9.80;99.90
11126;DHT22;5617;54.046;10.676;2024-03-02T09:32:03;9.80;99.90
11126;DHT22;5617;54.046;10.676;2024-03-02T09:34:12;9.90;99.90
11126;DHT22;5617;54.046;10.676;2024-03-02T09:36:22;10.00;99.90
11126;DHT22;5617;54.046;10.676;2024-03-02T09:38:35;10.10;99.90
11126;DHT22;5617;54.046;10.676;2024-03-02T09:40:44;10.10;99.90
11126;DHT22;5617;54.046;10.676;2024-03-02T09:42:59;10.10;99.90
11126;DHT22;5617;54.046;10.676;2024-03-02T09:45:09;10.20;99.90
11126;DHT22;5617;54.046;10.676;2024-03-02T09:47:18;10.20;99.90
11126;DHT22;5617;54.046;10.676;2024-03-02T09:49:32;10.30;99.90
11126;DHT22;5617;54.046;10.676;2024-03-02T09:51:43;10.40;99.90
11126;DHT22;5617;54.046;10.676;2024-03-02T09:53:55;10.50;99.90
11126;DHT22;5617;54.046;10.676;2024-03-02T09:56:22;10.50;99.90
11126;DHT22;5617;54.046;10.676;2024-03-02T09:58:35;10.70;99.90
11126;DHT22;5617;54.046;10.676;2024-03-02T10:00:44;10.90;99.90
11126;DHT22;5617;54.046;10.676;2024-03-02T10:02:54;11.00;99.90
11126;DHT22;5617;54.046;10.676;2024-03-02T10:05:08;11.10;99.90
11126;DHT22;5617;54.046;10.676;2024-03-02T10:07:18;11.30;99.90
11126;DHT22;5617;54.046;10.676;2024-03-02T10:09:27;11.40;99.90
11126;DHT22;5617;54.046;10.676;2024-03-02T10:11:36;11.50;99.90
11126;DHT22;5617;54.046;10.676;2024-03-02T10:13:46;11.40;99.90
11126;DHT22;5617;54.046;10.676;2024-03-02T10:16:11;11.50;99.90
11126;DHT22;5617;54.046;10.676;2024-03-02T10:18:26;11.50;99.90
11126;DHT22;5617;54.046;10.676;2024-03-02T10:20:37;11.60;99.90
11126;DHT22;5617;54.046;10.676;2024-03-02T10:22:46;11.80;99.90
11126;DHT22;5617;54.046;10.676;2024-03-02T10:24:55;11.80;99.90
11126;DHT22;5617;54.046;10.676;2024-03-02T10:27:09;11.80;99.90
11126;DHT22;5617;54.046;10.676;2024-03-02T10:29:19;11.90;99.90
11126;DHT22;5617;54.046;10.676;2024-03-02T10:31:28;12.00;99.90
11126;DHT22;5617;54.046;10.676;2024-03-02T10:33:40;12.10;99.90
11126;DHT22;5617;54.046;10.676;2024-03-02T10:35:52;12.20;99.90
11126;DHT22;5617;54.046;10.676;2024-03-02T10:38:01;12.40;99.90
11126;DHT22;5617;54.046;10.676;2024-03-02T10:40:12;12.20;99.90
11126;DHT22;5617;54.046;10.676;2024-03-02T10:42:22;12.20;99.90
11126;DHT22;5617;54.046;10.676;2024-03-02T10:44:33;12.20;99.90
11126;DHT22;5617;54.046;10.676;2024-03-02T10:46:43;12.30;99.90
11126;DHT22;5617;54.046;10.676;2024-03-02T10:48:55;12.30;99.90
11126;DHT22;5617;54.046;10.676;2024-03-02T10:51:10;12.40;99.90
11126;DHT22;5617;54.046;10.676;2024-03-02T10:53:19;12.40;99.90
11126;DHT22;5617;54.046;10.676;2024-03-02T10:55:27;12.40;99.90
11126;DHT22;5617;54.046;10.676;2024-03-02T10:57:41;12.50;99.90
11126;DHT22;5617;54.046;10.676;2024-03-02T10:59:52;12.40;99.90
11126;DHT22;5617;54.046;10.676;2024-03-02T11:02:03;12.40;99.90
11126;DHT22;5617;54.046;10.676;2024-03-02T11:04:18;12.40;99.90
11126;DHT22;5617;54.046;10.676;2024-03-02T11:06:28;12.40;99.90
11126;DHT22;5617;54.046;10.676;2024-03-02T11:08:37;12.40;99.90
11126;DHT22;5617;54.046;10.676;2024-03-02T11:10:50;12.50;99.90
11126;DHT22;5617;54.046;10.676;2024-03-02T11:13:02;12.60;99.90
11126;DHT22;5617;54.046;10.676;2024-03-02T11:15:17;12.70;99.90
11126;DHT22;5617;54.046;10.676;2024-03-02T11:17:27;12.60;99.90
11126;DHT22;5617;54.046;10.676;2024-03-02T11:19:38;12.60;99.90
11126;DHT22;5617;54.046;10.676;2024-03-02T11:21:48;12.70;99.90
11126;DHT22;5617;54.046;10.676;2024-03-02T11:23:57;12.80;99.90
11126;DHT22;5617;54.046;10.676;2024-03-02T11:26:17;12.80;99.90
11126;DHT22;5617;54.046;10.676;2024-03-02T11:28:35;12.80;99.90
11126;DHT22;5617;54.046;10.676;2024-03-02T11:30:51;12.80;99.90
11126;DHT22;5617;54.046;10.676;2024-03-02T11:33:03;12.90;99.90
11126;DHT22;5617;54.046;10.676;2024-03-02T11:35:15;12.90;99.90
11126;DHT22;5617;54.046;10.676;2024-03-02T11:37:24;12.80;99.90
11126;DHT22;5617;54.046;10.676;2024-03-02T11:39:34;12.70;99.90
11126;DHT22;5617;54.046;10.676;2024-03-02T11:41:45;12.70;99.90
11126;DHT22;5617;54.046;10.676;2024-03-02T11:43:59;12.70;99.90
11126;DHT22;5617;54.046;10.676;2024-03-02T11:46:08;12.70;99.90
11126;DHT22;5617;54.046;10.676;2024-03-02T11:48:20;12.70;99.90
11126;DHT22;5617;54.046;10.676;2024-03-02T11:50:34;12.80;99.90
11126;DHT22;5617;54.046;10.676;2024-03-02T11:52:47;12.80;99.90
11126;DHT22;5617;54.046;10.676;2024-03-02T11:54:56;12.80;99.90
11126;DHT22;5617;54.046;10.676;2024-03-02T11:57:09;12.90;99.90
11126;DHT22;5617;54.046;10.676;2024-03-02T11:59:17;12.90;99.90
11126;DHT22;5617;54.046;10.676;2024-03-02T12:01:26;13.00;99.90
11126;DHT22;5617;54.046;10.676;2024-03-02T12:03:35;13.10;99.90
11126;DHT22;5617;54.046;10.676;2024-03-02T12:05:48;13.10;99.90
11126;DHT22;5617;54.046;10.676;2024-03-02T12:08:02;13.20;99.90
11126;DHT22;5617;54.046;10.676;2024-03-02T12:10:11;13.30;99.90
11126;DHT22;5617;54.046;10.676;2024-03-02T12:12:26;13.50;99.90
11126;DHT22;5617;54.046;10.676;2024-03-02T12:14:38;13.70;99.90
11126;DHT22;5617;54.046;10.676;2024-03-02T12:16:47;13.80;99.90
11126;DHT22;5617;54.046;10.676;2024-03-02T12:18:55;14.00;99.90
11126;DHT22;5617;54.046;10.676;2024-03-02T12:21:05;14.20;99.90
11126;DHT22;5617;54.046;10.676;2024-03-02T12:23:15;14.30;99.90
11126;DHT22;5617;54.046;10.676;2024-03-02T12:25:25;14.60;99.90
11126;DHT22;5617;54.046;10.676;2024-03-02T12:27:34;14.70;99.90
11126;DHT22;5617;54.046;10.676;2024-03-02T12:29:43;14.80;99.90
11126;DHT22;5617;54.046;10.676;2024-03-02T12:31:52;14.90;99.90
11126;DHT22;5617;54.046;10.676;2024-03-02T12:34:01;14.90;99.90
11126;DHT22;5617;54.046;10.676;2024-03-02T12:36:10;15.00;99.90
11126;DHT22;5617;54.046;10.676;2024-03-02T12:38:20;15.20;99.90
11126;DHT22;5617;54.046;10.676;2024-03-02T12:40:32;15.40;99.90
11126;DHT22;5617;54.046;10.676;2024-03-02T12:42:41;15.40;99.90
11126;DHT22;5617;54.046;10.676;2024-03-02T12:44:51;15.50;99.90
11126;DHT22;5617;54.046;10.676;2024-03-02T12:47:02;15.60;99.70
11126;DHT22;5617;54.046;10.676;2024-03-02T12:49:12;15.70;99.80
11126;DHT22;5617;54.046;10.676;2024-03-02T12:51:22;15.70;99.90
11126;DHT22;5617;54.046;10.676;2024-03-02T12:53:30;15.50;99.70
11126;DHT22;5617;54.046;10.676;2024-03-02T12:55:38;15.30;99.60
11126;DHT22;5617;54.046;10.676;2024-03-02T12:57:46;15.10;99.50
11126;DHT22;5617;54.046;10.676;2024-03-02T12:59:58;15.00;99.80
11126;DHT22;5617;54.046;10.676;2024-03-02T13:02:07;14.90;99.70
11126;DHT22;5617;54.046;10.676;2024-03-02T13:04:25;14.80;99.70
11126;DHT22;5617;54.046;10.676;2024-03-02T13:06:36;14.90;99.80
11126;DHT22;5617;54.046;10.676;2024-03-02T13:08:45;14.80;99.60
11126;DHT22;5617;54.046;10.676;2024-03-02T13:10:54;14.80;99.80
11126;DHT22;5617;54.046;10.676;2024-03-02T13:13:03;14.80;99.70
11126;DHT22;5617;54.046;10.676;2024-03-02T13:15:12;14.80;99.60
11126;DHT22;5617;54.046;10.676;2024-03-02T13:17:27;14.90;99.60
11126;DHT22;5617;54.046;10.676;2024-03-02T13:19:50;14.80;99.60
11126;DHT22;5617;54.046;10.676;2024-03-02T13:22:02;14.70;99.80
11126;DHT22;5617;54.046;10.676;2024-03-02T13:24:10;14.70;99.80
11126;DHT22;5617;54.046;10.676;2024-03-02T13:26:19;14.70;99.80
11126;DHT22;5617;54.046;10.676;2024-03-02T13:28:27;14.70;99.90
11126;DHT22;5617;54.046;10.676;2024-03-02T13:30:36;14.70;99.80
11126;DHT22;5617;54.046;10.676;2024-03-02T13:32:44;14.60;99.90
11126;DHT22;5617;54.046;10.676;2024-03-02T13:34:53;14.70;99.90
11126;DHT22;5617;54.046;10.676;2024-03-02T13:37:03;14.70;99.80
11126;DHT22;5617;54.046;10.676;2024-03-02T13:39:13;14.60;99.80
11126;DHT22;5617;54.046;10.676;2024-03-02T13:41:22;14.60;99.80
11126;DHT22;5617;54.046;10.676;2024-03-02T13:43:31;14.60;99.80
11126;DHT22;5617;54.046;10.676;2024-03-02T13:45:41;14.50;99.80
11126;DHT22;5617;54.046;10.676;2024-03-02T13:47:54;14.50;99.90
11126;DHT22;5617;54.046;10.676;2024-03-02T13:50:02;14.50;99.80
11126;DHT22;5617;54.046;10.676;2024-03-02T13:52:13;14.50;99.80
11126;DHT22;5617;54.046;10.676;2024-03-02T13:54:22;14.50;99.80
11126;DHT22;5617;54.046;10.676;2024-03-02T13:56:31;14.40;99.60
11126;DHT22;5617;54.046;10.676;2024-03-02T13:58:40;14.30;99.70